createdAt,value
2018-01-23T00:00:32.337Z,83.00
2018-01-23T00:01:06.007Z,83.70
2018-01-23T00:01:40.452Z,83.00
2018-01-23T00:02:14.130Z,83.00
2018-01-23T00:02:47.788Z,82.90
2018-01-23T00:03:21.478Z,82.90
2018-01-23T00:03:55.926Z,83.00
2018-01-23T00:04:29.598Z,83.00
2018-01-23T00:05:03.701Z,83.00
2018-01-23T00:05:37.370Z,82.90
2018-01-23T00:06:11.809Z,83.00
2018-01-23T00:06:45.489Z,83.00
2018-01-23T00:07:19.157Z,83.00
2018-01-23T00:07:53.608Z,83.20
2018-01-23T00:08:27.368Z,83.10
2018-01-23T00:09:01.830Z,83.20
2018-01-23T00:09:35.499Z,83.20
2018-01-23T00:10:09.167Z,83.10
2018-01-23T00:10:42.839Z,83.10
2018-01-23T00:11:17.286Z,83.10
2018-01-23T00:11:50.951Z,83.10
2018-01-23T00:12:24.615Z,83.10
2018-01-23T00:12:59.054Z,83.10
2018-01-23T00:13:32.767Z,83.00
2018-01-23T00:14:06.451Z,83.00
2018-01-23T00:14:40.127Z,83.00
2018-01-23T00:15:13.466Z,83.00
2018-01-23T00:15:47.904Z,83.40
2018-01-23T00:16:21.568Z,83.00
2018-01-23T00:16:56.009Z,83.50
2018-01-23T00:17:29.673Z,83.10
2018-01-23T00:18:03.939Z,83.00
2018-01-23T00:18:37.638Z,83.00
2018-01-23T00:19:11.329Z,83.00
2018-01-23T00:19:44.986Z,82.80
2018-01-23T00:20:18.676Z,82.80
2018-01-23T00:20:52.341Z,82.80
2018-01-23T00:21:26.023Z,82.90
2018-01-23T00:22:00.463Z,82.90
2018-01-23T00:22:34.121Z,82.90
2018-01-23T00:23:07.797Z,82.90
2018-01-23T00:23:42.270Z,82.90
2018-01-23T00:24:15.932Z,82.90
2018-01-23T00:24:49.611Z,82.90
2018-01-23T00:25:23.278Z,82.80
2018-01-23T00:25:57.717Z,82.90
2018-01-23T00:26:31.402Z,82.80
2018-01-23T00:27:04.760Z,82.80
2018-01-23T00:27:39.202Z,82.70
2018-01-23T00:28:12.874Z,82.70
2018-01-23T00:28:46.231Z,82.70
2018-01-23T00:29:19.889Z,82.70
2018-01-23T00:29:53.570Z,82.60
2018-01-23T00:30:27.254Z,82.60
2018-01-23T00:31:00.939Z,82.60
2018-01-23T00:31:34.607Z,82.60
2018-01-23T00:32:08.281Z,82.70
2018-01-23T00:32:42.781Z,82.70
2018-01-23T00:33:17.232Z,82.60
2018-01-23T00:33:50.928Z,82.60
2018-01-23T00:34:24.597Z,82.50
2018-01-23T00:34:58.269Z,82.40
2018-01-23T00:35:31.944Z,82.40
2018-01-23T00:36:06.377Z,82.30
2018-01-23T00:36:40.173Z,82.30
2018-01-23T00:37:13.841Z,82.30
2018-01-23T00:37:48.277Z,82.30
2018-01-23T00:38:21.965Z,82.30
2018-01-23T00:38:55.666Z,82.30
2018-01-23T00:39:29.346Z,82.30
2018-01-23T00:40:03.018Z,82.30
2018-01-23T00:40:36.684Z,82.30
2018-01-23T00:41:11.118Z,82.40
2018-01-23T00:41:44.790Z,82.40
2018-01-23T00:42:19.251Z,82.40
2018-01-23T00:42:52.922Z,82.40
2018-01-23T00:43:26.594Z,82.50
2018-01-23T00:44:00.299Z,82.60
2018-01-23T00:44:33.971Z,82.50
2018-01-23T00:45:07.646Z,82.60
2018-01-23T00:45:42.074Z,82.50
2018-01-23T00:46:15.754Z,82.50
2018-01-23T00:46:50.197Z,82.60
2018-01-23T00:47:23.859Z,82.60
2018-01-23T00:47:57.522Z,82.60
2018-01-23T00:48:31.191Z,82.60
2018-01-23T00:49:04.893Z,82.60
2018-01-23T00:49:38.575Z,82.60
2018-01-23T00:50:12.272Z,82.70
2018-01-23T00:50:45.947Z,82.70
2018-01-23T00:51:19.627Z,82.70
2018-01-23T00:51:53.301Z,82.70
2018-01-23T00:52:26.963Z,82.70
2018-01-23T00:53:00.833Z,82.70
2018-01-23T00:53:35.288Z,82.90
2018-01-23T00:54:08.994Z,82.90
2018-01-23T00:54:42.666Z,82.90
2018-01-23T00:55:16.334Z,82.90
2018-01-23T00:55:50.018Z,82.90
2018-01-23T00:56:23.715Z,82.90
2018-01-23T00:56:57.407Z,83.00
2018-01-23T00:57:31.094Z,83.00
2018-01-23T00:58:04.773Z,83.10
2018-01-23T00:58:38.451Z,83.00
2018-01-23T00:59:12.921Z,83.10
2018-01-23T00:59:46.603Z,83.00
2018-01-23T01:00:20.265Z,83.10
2018-01-23T01:00:53.929Z,83.10
2018-01-23T01:01:28.385Z,83.10
2018-01-23T01:02:02.063Z,83.10
2018-01-23T01:02:35.736Z,83.10
2018-01-23T01:03:09.406Z,83.10
2018-01-23T01:03:43.834Z,83.20
2018-01-23T01:04:17.531Z,83.20
2018-01-23T01:04:51.211Z,83.20
2018-01-23T01:05:24.895Z,83.30
2018-01-23T01:05:59.327Z,83.40
2018-01-23T01:06:32.990Z,83.40
2018-01-23T01:07:06.673Z,83.30
2018-01-23T01:07:41.114Z,83.30
2018-01-23T01:08:14.789Z,83.30
2018-01-23T01:08:48.454Z,83.40
2018-01-23T01:09:22.918Z,83.50
2018-01-23T01:09:56.603Z,83.50
2018-01-23T01:10:30.280Z,83.50
2018-01-23T01:11:03.950Z,83.60
2018-01-23T01:11:37.652Z,83.60
2018-01-23T01:12:11.493Z,83.70
2018-01-23T01:12:45.161Z,83.80
2018-01-23T01:13:18.856Z,83.80
2018-01-23T01:13:52.536Z,83.90
2018-01-23T01:14:26.242Z,84.00
2018-01-23T01:14:59.906Z,84.00
2018-01-23T01:15:33.568Z,83.90
2018-01-23T01:16:07.254Z,83.90
2018-01-23T01:16:41.685Z,84.10
2018-01-23T01:17:15.353Z,84.10
2018-01-23T01:17:49.029Z,84.20
2018-01-23T01:18:23.470Z,84.30
2018-01-23T01:18:57.139Z,84.30
2018-01-23T01:19:30.858Z,84.30
2018-01-23T01:20:04.193Z,84.20
2018-01-23T01:20:38.636Z,84.20
2018-01-23T01:21:12.321Z,84.20
2018-01-23T01:21:45.996Z,84.30
2018-01-23T01:22:20.437Z,84.40
2018-01-23T01:22:54.113Z,84.40
2018-01-23T01:23:27.787Z,84.40
2018-01-23T01:24:01.467Z,84.50
2018-01-23T01:24:35.945Z,84.60
2018-01-23T01:25:09.623Z,84.50
2018-01-23T01:25:43.284Z,84.50
2018-01-23T01:26:16.955Z,84.60
2018-01-23T01:26:50.627Z,84.60
2018-01-23T01:27:25.068Z,84.70
2018-01-23T01:27:58.734Z,84.70
2018-01-23T01:28:33.164Z,84.70
2018-01-23T01:29:06.837Z,84.70
2018-01-23T01:29:40.548Z,84.80
2018-01-23T01:30:14.226Z,84.90
2018-01-23T01:30:47.901Z,84.90
2018-01-23T01:31:22.349Z,84.80
2018-01-23T01:31:56.040Z,84.80
2018-01-23T01:32:29.723Z,84.90
2018-01-23T01:33:03.394Z,84.90
2018-01-23T01:33:37.069Z,84.80
2018-01-23T01:34:11.505Z,85.40
2018-01-23T01:34:45.201Z,84.80
2018-01-23T01:35:18.881Z,84.70
2018-01-23T01:35:52.567Z,84.60
2018-01-23T01:36:26.231Z,84.60
2018-01-23T01:37:00.677Z,84.50
2018-01-23T01:37:34.351Z,84.50
2018-01-23T01:38:08.023Z,84.50
2018-01-23T01:38:42.453Z,84.40
2018-01-23T01:39:16.128Z,84.40
2018-01-23T01:39:49.833Z,84.40
2018-01-23T01:40:23.507Z,84.40
2018-01-23T01:40:57.165Z,84.40
2018-01-23T01:41:30.830Z,84.40
2018-01-23T01:42:04.492Z,84.40
2018-01-23T01:42:38.162Z,84.40
2018-01-23T01:43:11.833Z,84.40
2018-01-23T01:43:46.275Z,84.40
2018-01-23T01:44:19.954Z,84.30
2018-01-23T01:44:53.645Z,84.20
2018-01-23T01:45:27.322Z,84.20
2018-01-23T01:46:01.757Z,84.30
2018-01-23T01:46:35.434Z,84.30
2018-01-23T01:47:08.778Z,84.30
2018-01-23T01:47:43.214Z,84.30
2018-01-23T01:48:16.888Z,84.30
2018-01-23T01:48:53.307Z,84.30
2018-01-23T01:49:27.031Z,84.30
2018-01-23T01:50:01.491Z,84.30
2018-01-23T01:50:35.166Z,84.30
2018-01-23T01:51:08.838Z,84.20
2018-01-23T01:51:42.516Z,84.80
2018-01-23T01:52:16.953Z,84.10
2018-01-23T01:52:50.636Z,84.10
2018-01-23T01:53:24.313Z,84.00
2018-01-23T01:53:58.048Z,84.00
2018-01-23T01:54:31.725Z,83.90
2018-01-23T01:55:05.443Z,83.80
2018-01-23T01:55:39.107Z,83.80
2018-01-23T01:56:12.467Z,83.80
2018-01-23T01:56:46.141Z,83.80
2018-01-23T01:57:19.818Z,83.80
2018-01-23T01:57:53.687Z,83.80
2018-01-23T01:58:27.361Z,83.20
2018-01-23T01:59:01.191Z,84.10
2018-01-23T01:59:35.642Z,83.70
2018-01-23T02:00:09.006Z,83.70
2018-01-23T02:00:42.683Z,83.60
2018-01-23T02:01:16.360Z,83.50
2018-01-23T02:01:50.795Z,83.50
2018-01-23T02:02:24.474Z,83.60
2018-01-23T02:02:58.153Z,83.50
2018-01-23T02:03:32.613Z,83.50
2018-01-23T02:04:06.318Z,83.50
2018-01-23T02:04:39.977Z,83.50
2018-01-23T02:05:13.684Z,83.40
2018-01-23T02:05:47.365Z,83.40
2018-01-23T02:06:21.053Z,83.40
2018-01-23T02:06:54.724Z,83.20
2018-01-23T02:07:28.399Z,83.20
2018-01-23T02:08:02.069Z,83.30
2018-01-23T02:08:36.511Z,83.20
2018-01-23T02:09:10.185Z,83.20
2018-01-23T02:09:43.852Z,83.20
2018-01-23T02:10:18.310Z,83.00
2018-01-23T02:10:51.974Z,83.00
2018-01-23T02:11:25.648Z,82.90
2018-01-23T02:12:00.089Z,82.70
2018-01-23T02:12:33.754Z,82.70
2018-01-23T02:13:08.186Z,82.70
2018-01-23T02:13:41.850Z,82.80
2018-01-23T02:14:16.286Z,82.70
2018-01-23T02:14:49.957Z,82.70
2018-01-23T02:15:23.641Z,82.70
2018-01-23T02:15:57.316Z,82.70
2018-01-23T02:16:31.747Z,82.60
2018-01-23T02:17:05.413Z,82.60
2018-01-23T02:17:39.871Z,82.60
2018-01-23T02:18:13.567Z,82.60
2018-01-23T02:18:47.234Z,82.60
2018-01-23T02:19:20.579Z,82.60
2018-01-23T02:19:54.688Z,82.70
2018-01-23T02:20:28.885Z,82.60
2018-01-23T02:21:03.330Z,82.60
2018-01-23T02:21:37.028Z,82.60
2018-01-23T02:22:10.705Z,82.50
2018-01-23T02:22:44.569Z,82.50
2018-01-23T02:23:19.005Z,82.60
2018-01-23T02:23:52.671Z,82.50
2018-01-23T02:24:26.375Z,82.50
2018-01-23T02:25:00.063Z,82.50
2018-01-23T02:25:33.748Z,82.40
2018-01-23T02:26:07.416Z,82.30
2018-01-23T02:26:41.845Z,82.40
2018-01-23T02:27:15.510Z,82.40
2018-01-23T02:27:50.049Z,82.50
2018-01-23T02:28:23.722Z,82.50
2018-01-23T02:28:58.167Z,82.40
2018-01-23T02:29:31.853Z,82.40
2018-01-23T02:30:05.521Z,82.30
2018-01-23T02:30:39.212Z,82.20
2018-01-23T02:31:12.891Z,82.10
2018-01-23T02:31:47.329Z,82.20
2018-01-23T02:32:21.059Z,82.80
2018-01-23T02:32:54.761Z,82.30
2018-01-23T02:33:28.426Z,82.30
2018-01-23T02:34:02.090Z,82.90
2018-01-23T02:34:35.769Z,82.20
2018-01-23T02:35:09.439Z,82.10
2018-01-23T02:35:43.142Z,82.00
2018-01-23T02:36:16.833Z,82.00
2018-01-23T02:36:50.506Z,82.00
2018-01-23T02:37:24.170Z,82.00
2018-01-23T02:37:57.850Z,82.00
2018-01-23T02:38:31.512Z,82.00
2018-01-23T02:39:04.338Z,82.10
2018-01-23T02:39:38.788Z,82.10
2018-01-23T02:40:12.469Z,82.00
2018-01-23T02:40:46.168Z,81.90
2018-01-23T02:41:19.849Z,82.00
2018-01-23T02:41:53.517Z,82.00
2018-01-23T02:42:27.189Z,81.90
2018-01-23T02:43:01.628Z,81.90
2018-01-23T02:43:35.301Z,81.90
2018-01-23T02:44:08.977Z,81.80
2018-01-23T02:44:43.422Z,81.90
2018-01-23T02:45:17.109Z,82.00
2018-01-23T02:45:50.800Z,82.00
2018-01-23T02:46:24.468Z,82.00
2018-01-23T02:46:58.240Z,82.00
2018-01-23T02:47:32.676Z,81.90
2018-01-23T02:48:06.352Z,81.90
2018-01-23T02:48:40.025Z,81.80
2018-01-23T02:49:14.483Z,81.70
2018-01-23T02:49:48.151Z,81.70
2018-01-23T02:50:21.822Z,81.60
2018-01-23T02:50:56.285Z,81.60
2018-01-23T02:51:29.955Z,81.50
2018-01-23T02:52:03.626Z,81.50
2018-01-23T02:52:37.288Z,81.50
2018-01-23T02:53:11.726Z,81.40
2018-01-23T02:53:45.425Z,81.30
2018-01-23T02:54:19.091Z,81.40
2018-01-23T02:54:53.560Z,81.50
2018-01-23T02:55:27.236Z,82.00
2018-01-23T02:56:00.919Z,81.50
2018-01-23T02:56:34.593Z,81.50
2018-01-23T02:57:08.254Z,81.50
2018-01-23T02:57:42.708Z,81.60
2018-01-23T02:58:16.556Z,81.60
2018-01-23T02:58:50.978Z,81.60
2018-01-23T02:59:24.635Z,81.50
2018-01-23T02:59:58.298Z,81.60
2018-01-23T03:00:31.970Z,81.50
2018-01-23T03:01:05.659Z,81.50
2018-01-23T03:01:39.306Z,81.60
2018-01-23T03:02:13.725Z,81.60
2018-01-23T03:02:47.387Z,81.60
2018-01-23T03:03:21.836Z,81.60
2018-01-23T03:03:55.506Z,81.50
2018-01-23T03:04:29.980Z,81.50
2018-01-23T03:05:03.668Z,81.60
2018-01-23T03:05:37.326Z,81.60
2018-01-23T03:06:11.010Z,81.50
2018-01-23T03:06:44.678Z,81.30
2018-01-23T03:07:18.344Z,81.20
2018-01-23T03:07:52.007Z,81.20
2018-01-23T03:08:25.334Z,81.80
2018-01-23T03:08:59.778Z,81.20
2018-01-23T03:09:33.434Z,81.20
2018-01-23T03:10:07.855Z,81.10
2018-01-23T03:10:41.565Z,81.10
2018-01-23T03:11:15.254Z,81.20
2018-01-23T03:11:48.923Z,81.20
2018-01-23T03:12:22.592Z,81.30
2018-01-23T03:12:57.019Z,81.30
2018-01-23T03:13:30.683Z,81.30
2018-01-23T03:14:04.777Z,81.20
2018-01-23T03:14:38.874Z,81.20
2018-01-23T03:15:13.299Z,81.30
2018-01-23T03:15:46.966Z,81.20
2018-01-23T03:16:20.650Z,81.30
2018-01-23T03:16:54.321Z,81.40
2018-01-23T03:17:27.987Z,81.30
2018-01-23T03:18:01.643Z,81.20
2018-01-23T03:18:36.077Z,81.20
2018-01-23T03:19:09.557Z,81.10
2018-01-23T03:19:43.227Z,81.30
2018-01-23T03:20:17.656Z,81.40
2018-01-23T03:20:51.322Z,81.30
2018-01-23T03:21:25.786Z,81.40
2018-01-23T03:21:59.438Z,81.40
2018-01-23T03:22:33.109Z,81.30
2018-01-23T03:23:07.535Z,81.20
2018-01-23T03:23:41.202Z,81.20
2018-01-23T03:24:15.641Z,81.40
2018-01-23T03:24:49.297Z,81.40
2018-01-23T03:25:23.733Z,81.20
2018-01-23T03:25:57.402Z,81.20
2018-01-23T03:26:31.086Z,81.20
2018-01-23T03:27:04.758Z,81.20
2018-01-23T03:27:39.187Z,81.30
2018-01-23T03:28:13.622Z,81.20
2018-01-23T03:28:47.286Z,81.20
2018-01-23T03:29:20.962Z,81.20
2018-01-23T03:29:55.390Z,81.30
2018-01-23T03:30:29.062Z,81.30
2018-01-23T03:31:03.507Z,81.30
2018-01-23T03:31:37.188Z,81.30
2018-01-23T03:32:10.850Z,81.20
2018-01-23T03:32:45.289Z,81.10
2018-01-23T03:33:18.770Z,81.10
2018-01-23T03:33:52.435Z,81.10
2018-01-23T03:34:26.105Z,81.20
2018-01-23T03:35:00.536Z,81.10
2018-01-23T03:35:34.204Z,81.70
2018-01-23T03:36:08.629Z,81.10
2018-01-23T03:36:43.066Z,81.10
2018-01-23T03:37:16.742Z,81.10
2018-01-23T03:37:50.397Z,81.20
2018-01-23T03:38:24.833Z,81.80
2018-01-23T03:38:58.490Z,81.20
2018-01-23T03:39:32.913Z,81.30
2018-01-23T03:40:07.353Z,81.30
2018-01-23T03:40:41.014Z,81.30
2018-01-23T03:41:15.458Z,81.40
2018-01-23T03:41:49.122Z,81.40
2018-01-23T03:42:22.807Z,81.30
2018-01-23T03:42:56.475Z,81.30
2018-01-23T03:43:30.134Z,81.30
2018-01-23T03:44:03.796Z,81.30
2018-01-23T03:44:37.457Z,81.20
2018-01-23T03:45:11.885Z,81.10
2018-01-23T03:45:45.558Z,81.10
2018-01-23T03:46:19.257Z,80.90
2018-01-23T03:46:52.922Z,80.70
2018-01-23T03:47:27.358Z,80.70
2018-01-23T03:48:01.025Z,80.60
2018-01-23T03:48:35.514Z,80.70
2018-01-23T03:49:09.315Z,80.70
2018-01-23T03:49:42.974Z,80.70
2018-01-23T03:50:16.635Z,80.80
2018-01-23T03:50:50.297Z,80.90
2018-01-23T03:51:24.738Z,80.80
2018-01-23T03:51:58.418Z,80.80
2018-01-23T03:52:32.082Z,80.70
2018-01-23T03:53:06.502Z,80.80
2018-01-23T03:53:40.188Z,80.80
2018-01-23T03:54:13.881Z,80.90
2018-01-23T03:54:47.558Z,81.00
2018-01-23T03:55:21.998Z,80.90
2018-01-23T03:55:55.654Z,80.90
2018-01-23T03:56:29.766Z,80.80
2018-01-23T03:57:03.436Z,80.80
2018-01-23T03:57:37.882Z,80.70
2018-01-23T03:58:11.557Z,80.70
2018-01-23T03:58:45.990Z,80.60
2018-01-23T03:59:19.654Z,80.60
2018-01-23T03:59:53.313Z,80.60
2018-01-23T04:00:26.976Z,80.60
2018-01-23T04:01:00.638Z,80.60
2018-01-23T04:01:34.349Z,80.60
2018-01-23T04:02:08.017Z,80.60
2018-01-23T04:02:41.681Z,80.60
2018-01-23T04:03:15.347Z,80.50
2018-01-23T04:03:49.009Z,80.50
2018-01-23T04:04:22.338Z,80.50
2018-01-23T04:04:56.013Z,80.50
2018-01-23T04:05:30.441Z,80.60
2018-01-23T04:06:04.107Z,80.50
2018-01-23T04:06:38.569Z,80.60
2018-01-23T04:07:12.233Z,80.60
2018-01-23T04:07:45.914Z,80.60
2018-01-23T04:08:19.569Z,80.60
2018-01-23T04:08:53.237Z,80.60
2018-01-23T04:09:26.902Z,80.80
2018-01-23T04:10:00.575Z,80.70
2018-01-23T04:10:33.947Z,80.60
2018-01-23T04:11:08.384Z,80.50
2018-01-23T04:11:42.071Z,80.40
2018-01-23T04:12:15.782Z,80.50
2018-01-23T04:12:49.663Z,80.40
2018-01-23T04:13:23.338Z,80.40
2018-01-23T04:13:56.991Z,80.40
2018-01-23T04:14:31.426Z,80.20
2018-01-23T04:15:05.086Z,80.20
2018-01-23T04:15:38.742Z,80.20
2018-01-23T04:16:12.415Z,80.40
2018-01-23T04:16:46.096Z,80.20
2018-01-23T04:17:19.762Z,80.20
2018-01-23T04:17:54.193Z,81.00
2018-01-23T04:18:27.858Z,80.40
2018-01-23T04:19:02.293Z,80.40
2018-01-23T04:19:35.952Z,80.50
2018-01-23T04:20:10.376Z,80.50
2018-01-23T04:20:43.716Z,80.40
2018-01-23T04:21:17.370Z,80.30
2018-01-23T04:21:51.039Z,80.30
2018-01-23T04:22:24.693Z,80.20
2018-01-23T04:22:58.389Z,80.10
2018-01-23T04:23:32.202Z,80.50
2018-01-23T04:24:05.867Z,80.10
2018-01-23T04:24:39.517Z,80.10
2018-01-23T04:25:13.186Z,80.00
2018-01-23T04:25:46.857Z,80.00
2018-01-23T04:26:20.526Z,80.10
2018-01-23T04:26:54.188Z,80.10
2018-01-23T04:27:27.847Z,80.10
2018-01-23T04:28:01.506Z,80.10
2018-01-23T04:28:35.932Z,80.20
2018-01-23T04:29:09.591Z,80.20
2018-01-23T04:29:44.021Z,80.10
2018-01-23T04:30:17.699Z,80.00
2018-01-23T04:30:52.143Z,80.20
2018-01-23T04:31:25.827Z,80.20
2018-01-23T04:31:59.503Z,80.20
2018-01-23T04:32:33.172Z,80.20
2018-01-23T04:33:07.592Z,80.20
2018-01-23T04:33:41.070Z,80.20
2018-01-23T04:34:15.310Z,80.20
2018-01-23T04:34:48.971Z,80.20
2018-01-23T04:35:22.618Z,80.30
2018-01-23T04:35:56.277Z,80.20
2018-01-23T04:36:29.934Z,80.10
2018-01-23T04:37:03.618Z,80.10
2018-01-23T04:37:38.057Z,80.00
2018-01-23T04:38:11.718Z,80.00
2018-01-23T04:38:46.141Z,79.90
2018-01-23T04:39:19.810Z,79.90
2018-01-23T04:39:54.253Z,79.80
2018-01-23T04:40:27.941Z,79.80
2018-01-23T04:41:01.617Z,79.90
2018-01-23T04:41:35.314Z,79.90
2018-01-23T04:42:08.999Z,80.00
2018-01-23T04:42:42.666Z,79.90
2018-01-23T04:43:17.102Z,79.80
2018-01-23T04:43:50.769Z,79.80
2018-01-23T04:44:24.444Z,79.80
2018-01-23T04:44:58.870Z,79.80
2018-01-23T04:45:32.532Z,79.60
2018-01-23T04:46:06.193Z,79.80
2018-01-23T04:46:39.853Z,79.80
2018-01-23T04:47:13.534Z,79.80
2018-01-23T04:47:47.198Z,79.80
2018-01-23T04:48:21.633Z,79.90
2018-01-23T04:48:55.301Z,79.90
2018-01-23T04:49:29.729Z,79.80
2018-01-23T04:50:03.387Z,79.70
2018-01-23T04:50:37.824Z,79.70
2018-01-23T04:51:11.494Z,79.60
2018-01-23T04:51:45.161Z,79.60
2018-01-23T04:52:18.840Z,80.20
2018-01-23T04:52:52.498Z,80.30
2018-01-23T04:53:26.146Z,79.50
2018-01-23T04:54:00.633Z,79.40
2018-01-23T04:54:34.441Z,79.40
2018-01-23T04:55:08.870Z,79.80
2018-01-23T04:55:42.542Z,79.50
2018-01-23T04:56:16.970Z,79.40
2018-01-23T04:56:50.634Z,79.40
2018-01-23T04:57:25.094Z,79.40
2018-01-23T04:57:58.755Z,79.40
2018-01-23T04:58:32.992Z,79.50
2018-01-23T04:59:06.661Z,79.50
2018-01-23T04:59:40.314Z,79.60
2018-01-23T05:00:14.757Z,79.90
2018-01-23T05:00:48.422Z,79.80
2018-01-23T05:01:22.857Z,80.00
2018-01-23T05:01:56.513Z,80.00
2018-01-23T05:02:30.969Z,79.90
2018-01-23T05:03:04.634Z,79.90
2018-01-23T05:03:38.297Z,79.80
2018-01-23T05:04:13.254Z,79.90
2018-01-23T05:04:46.917Z,79.80
2018-01-23T05:05:21.363Z,79.60
2018-01-23T05:05:55.025Z,79.60
2018-01-23T05:06:28.736Z,79.60
2018-01-23T05:07:03.338Z,79.40
2018-01-23T05:07:36.992Z,79.30
2018-01-23T05:08:11.428Z,79.30
2018-01-23T05:08:45.094Z,79.30
2018-01-23T05:09:19.530Z,79.50
2018-01-23T05:09:53.198Z,79.40
2018-01-23T05:10:27.293Z,79.50
2018-01-23T05:11:02.050Z,79.40
2018-01-23T05:11:35.720Z,79.40
2018-01-23T05:12:09.414Z,79.20
2018-01-23T05:12:43.070Z,79.10
2018-01-23T05:13:17.490Z,78.90
2018-01-23T05:13:51.917Z,79.00
2018-01-23T05:14:25.247Z,78.90
2018-01-23T05:14:59.669Z,79.10
2018-01-23T05:15:34.106Z,79.00
2018-01-23T05:16:07.777Z,79.00
2018-01-23T05:16:42.397Z,78.90
2018-01-23T05:17:16.084Z,78.90
2018-01-23T05:17:50.534Z,78.90
2018-01-23T05:18:24.188Z,78.90
2018-01-23T05:18:58.991Z,79.00
2018-01-23T05:19:33.424Z,79.00
2018-01-23T05:20:07.146Z,79.00
2018-01-23T05:20:40.807Z,78.90
2018-01-23T05:21:14.479Z,78.90
2018-01-23T05:21:48.143Z,78.90
2018-01-23T05:22:21.826Z,79.00
2018-01-23T05:22:55.515Z,79.00
2018-01-23T05:23:29.950Z,79.10
2018-01-23T05:24:04.045Z,79.20
2018-01-23T05:24:38.464Z,79.30
2018-01-23T05:25:12.141Z,79.30
2018-01-23T05:25:46.574Z,79.30
2018-01-23T05:26:20.238Z,79.30
2018-01-23T05:26:54.682Z,79.30
2018-01-23T05:27:28.362Z,79.30
2018-01-23T05:28:02.030Z,79.30
2018-01-23T05:28:35.696Z,79.40
2018-01-23T05:29:10.117Z,79.40
2018-01-23T05:29:44.547Z,79.30
2018-01-23T05:30:18.201Z,79.30
2018-01-23T05:30:51.862Z,79.20
2018-01-23T05:31:25.519Z,79.30
2018-01-23T05:31:59.194Z,79.20
2018-01-23T05:32:32.873Z,79.20
2018-01-23T05:33:07.316Z,79.00
2018-01-23T05:33:40.992Z,79.00
2018-01-23T05:34:14.671Z,78.90
2018-01-23T05:34:48.327Z,79.00
2018-01-23T05:35:21.985Z,78.90
2018-01-23T05:35:55.670Z,79.00
2018-01-23T05:36:29.333Z,79.10
2018-01-23T05:37:02.999Z,79.20
2018-01-23T05:37:37.457Z,79.40
2018-01-23T05:38:11.120Z,79.40
2018-01-23T05:38:44.797Z,79.40
2018-01-23T05:39:19.230Z,79.20
2018-01-23T05:39:52.898Z,79.20
2018-01-23T05:40:26.557Z,79.20
2018-01-23T05:41:00.221Z,79.10
2018-01-23T05:41:33.909Z,79.40
2018-01-23T05:42:07.254Z,79.10
2018-01-23T05:42:40.934Z,79.20
2018-01-23T05:43:14.599Z,79.30
2018-01-23T05:43:48.267Z,79.40
2018-01-23T05:44:21.934Z,79.40
2018-01-23T05:44:55.610Z,79.40
2018-01-23T05:45:29.282Z,79.40
2018-01-23T05:46:02.948Z,79.40
2018-01-23T05:46:36.612Z,79.40
2018-01-23T05:47:10.278Z,79.40
2018-01-23T05:47:43.962Z,79.30
2018-01-23T05:48:17.630Z,79.30
2018-01-23T05:48:51.306Z,79.20
2018-01-23T05:49:25.734Z,79.30
2018-01-23T05:49:59.410Z,79.30
2018-01-23T05:50:33.852Z,79.20
2018-01-23T05:51:07.515Z,79.20
2018-01-23T05:51:41.177Z,79.10
2018-01-23T05:52:15.615Z,79.20
2018-01-23T05:52:49.318Z,79.20
2018-01-23T05:53:22.999Z,79.20
2018-01-23T05:53:56.670Z,79.30
2018-01-23T05:54:31.094Z,79.40
2018-01-23T05:55:04.115Z,79.40
2018-01-23T05:55:37.774Z,79.50
2018-01-23T05:56:11.438Z,79.50
2018-01-23T05:56:45.114Z,79.60
2018-01-23T05:57:19.380Z,79.60
2018-01-23T05:57:53.092Z,79.60
2018-01-23T05:58:26.762Z,79.60
2018-01-23T05:59:00.426Z,79.60
2018-01-23T05:59:34.118Z,79.70
2018-01-23T06:00:07.557Z,79.70
2018-01-23T06:00:41.974Z,79.90
2018-01-23T06:01:16.389Z,79.80
2018-01-23T06:01:50.820Z,79.80
2018-01-23T06:02:24.500Z,79.80
2018-01-23T06:02:58.201Z,80.40
2018-01-23T06:03:31.862Z,79.80
2018-01-23T06:04:06.273Z,79.70
2018-01-23T06:04:39.942Z,79.70
2018-01-23T06:05:14.394Z,79.80
2018-01-23T06:05:48.063Z,79.80
2018-01-23T06:06:21.396Z,79.80
2018-01-23T06:06:55.060Z,79.80
2018-01-23T06:07:28.746Z,79.70
2018-01-23T06:08:02.434Z,79.70
2018-01-23T06:08:36.201Z,79.60
2018-01-23T06:09:09.886Z,79.70
2018-01-23T06:09:43.566Z,79.60
2018-01-23T06:10:18.013Z,79.60
2018-01-23T06:10:51.678Z,79.60
2018-01-23T06:11:25.351Z,79.70
2018-01-23T06:11:59.781Z,79.70
2018-01-23T06:12:33.434Z,79.70
2018-01-23T06:13:07.109Z,79.70
2018-01-23T06:13:40.762Z,79.70
2018-01-23T06:14:14.436Z,79.80
2018-01-23T06:14:48.098Z,79.80
2018-01-23T06:15:22.534Z,79.80
2018-01-23T06:15:56.195Z,79.70
2018-01-23T06:16:30.625Z,80.00
2018-01-23T06:17:04.318Z,79.90
2018-01-23T06:17:37.983Z,79.90
2018-01-23T06:18:12.442Z,79.60
2018-01-23T06:18:46.118Z,79.60
2018-01-23T06:19:19.269Z,80.20
2018-01-23T06:19:53.744Z,79.50
2018-01-23T06:20:27.405Z,79.40
2018-01-23T06:21:00.886Z,79.40
2018-01-23T06:21:34.543Z,79.40
2018-01-23T06:22:08.977Z,79.50
2018-01-23T06:22:42.661Z,79.50
2018-01-23T06:23:16.363Z,79.50
2018-01-23T06:23:50.026Z,79.40
2018-01-23T06:24:23.693Z,79.50
2018-01-23T06:24:58.118Z,79.50
2018-01-23T06:25:31.793Z,79.40
2018-01-23T06:26:06.223Z,79.50
2018-01-23T06:26:39.887Z,79.50
2018-01-23T06:27:14.342Z,79.50
2018-01-23T06:27:48.015Z,79.50
2018-01-23T06:28:21.901Z,79.50
2018-01-23T06:28:55.558Z,79.40
2018-01-23T06:29:29.235Z,79.40
2018-01-23T06:30:02.894Z,79.10
2018-01-23T06:30:36.573Z,79.50
2018-01-23T06:31:10.239Z,79.50
2018-01-23T06:31:44.678Z,79.50
2018-01-23T06:32:18.370Z,79.50
2018-01-23T06:32:51.865Z,79.40
2018-01-23T06:33:25.374Z,79.40
2018-01-23T06:33:58.862Z,79.30
2018-01-23T06:34:32.525Z,79.30
2018-01-23T06:35:06.193Z,79.30
2018-01-23T06:35:39.868Z,79.30
2018-01-23T06:36:13.539Z,79.30
2018-01-23T06:36:47.983Z,78.90
2018-01-23T06:37:21.653Z,78.90
2018-01-23T06:37:55.331Z,78.70
2018-01-23T06:38:29.800Z,78.70
2018-01-23T06:39:02.934Z,78.70
2018-01-23T06:39:36.600Z,78.80
2018-01-23T06:40:11.026Z,78.90
2018-01-23T06:40:44.514Z,78.90
2018-01-23T06:41:18.193Z,78.90
2018-01-23T06:41:52.627Z,79.10
2018-01-23T06:42:26.285Z,79.10
2018-01-23T06:43:00.730Z,79.20
2018-01-23T06:43:34.441Z,79.20
2018-01-23T06:44:08.109Z,79.20
2018-01-23T06:44:41.773Z,79.10
2018-01-23T06:45:15.445Z,79.00
2018-01-23T06:45:49.864Z,79.00
2018-01-23T06:46:24.286Z,79.10
2018-01-23T06:46:57.960Z,79.00
2018-01-23T06:47:32.381Z,79.10
2018-01-23T06:48:06.042Z,79.10
2018-01-23T06:48:39.739Z,79.10
2018-01-23T06:49:14.173Z,79.10
2018-01-23T06:49:47.862Z,79.10
2018-01-23T06:50:21.538Z,79.10
2018-01-23T06:50:55.211Z,79.20
2018-01-23T06:51:29.663Z,79.20
2018-01-23T06:52:03.342Z,79.20
2018-01-23T06:52:37.027Z,79.20
2018-01-23T06:53:10.709Z,79.20
2018-01-23T06:53:44.394Z,79.20
2018-01-23T06:54:18.054Z,79.30
2018-01-23T06:54:51.719Z,79.30
2018-01-23T06:55:25.389Z,79.20
2018-01-23T06:55:59.066Z,78.90
2018-01-23T06:56:32.737Z,78.70
2018-01-23T06:57:07.185Z,78.60
2018-01-23T06:57:40.941Z,78.60
2018-01-23T06:58:15.366Z,78.60
2018-01-23T06:58:49.066Z,78.60
2018-01-23T06:59:22.730Z,78.60
2018-01-23T06:59:56.400Z,78.60
2018-01-23T07:00:30.638Z,78.60
2018-01-23T07:01:04.301Z,78.60
2018-01-23T07:01:38.722Z,78.60
2018-01-23T07:02:12.406Z,78.60
2018-01-23T07:02:46.086Z,78.50
2018-01-23T07:03:20.379Z,78.80
2018-01-23T07:03:54.836Z,78.80
2018-01-23T07:04:28.486Z,78.70
2018-01-23T07:05:02.905Z,78.70
2018-01-23T07:05:36.575Z,78.70
2018-01-23T07:06:11.009Z,78.70
2018-01-23T07:06:44.673Z,78.70
2018-01-23T07:07:19.123Z,78.70
2018-01-23T07:07:52.789Z,78.70
2018-01-23T07:08:26.459Z,78.90
2018-01-23T07:09:00.970Z,78.70
2018-01-23T07:09:35.395Z,78.70
2018-01-23T07:10:09.068Z,78.70
2018-01-23T07:10:43.506Z,78.90
2018-01-23T07:11:17.170Z,78.90
2018-01-23T07:11:51.594Z,79.00
2018-01-23T07:12:25.254Z,79.00
2018-01-23T07:12:59.826Z,78.90
2018-01-23T07:13:33.513Z,78.90
2018-01-23T07:14:07.205Z,78.90
2018-01-23T07:14:40.876Z,78.80
2018-01-23T07:15:14.542Z,78.80
2018-01-23T07:15:48.211Z,78.70
2018-01-23T07:16:21.872Z,78.70